Snow/Ice From: 17-12-2017 10:00 Until: 18-12-2017 06:00 warning for: Snow/Ice Level: Yellow info button

Although rather usual in this region, locally or potentially dangerous phenomena are expected. (such as local winds, summer thunderstorms, rising streams or high waves) Be aware and pay attention to the latest weather updates, especially if you carry out activities exposed to weather or close to a stream or shoreline. 


Meteo18 Weather Cam more information Meteo18 Weather Cam


Thunder radar more information blitzortung!


warning for Snow/Ice more information rain snow radar


Visit our other weather sites:

Template documentation
and downloads

And another site



Weather Underground History page Text

Daily Summary for October 19, 2016 Units:  Metric    English   Both
« Previous Day
Next Day »
Daily Weekly Monthly Yearly Custom
  High: Low: Average:
Temperature: 13.2 °C 6.9 °C 10.3 °C
Dew Point: 9.7 °C 4.4 °C 7.3 °C
Humidity: 96 % 59 % 83 %
Wind Speed: 14.5 km/h 0.0 km/h 2.7 km/h
Wind Gust: 19.3 km/h - -
Wind:- - West
Pressure: 1023.2 hPa 1019.9 hPa -
Precipitation: 0.3 mm    
Historical Graphs
 
 
Tabular Data for October 19, 2016
Time Temperature Dew Point Pressure Wind Wind Speed Wind Gust Humidity Rainfall Rate (Hourly)
00:02 10.9 °C 9.0 °C 1023.2 hPa WNW 1.6 km/h 6.4 km/h 88 % 0.0 mm
00:12 10.9 °C 9.0 °C 1023.2 hPa West 3.2 km/h 4.8 km/h 88 % 0.0 mm
00:17 10.9 °C 9.0 °C 1023.2 hPa WNW 1.6 km/h 4.8 km/h 88 % 0.0 mm
00:22 10.9 °C 9.2 °C 1023.2 hPa WNW 4.8 km/h 8.0 km/h 89 % 0.0 mm
00:27 10.8 °C 9.1 °C 1023.2 hPa WNW 1.6 km/h 8.0 km/h 89 % 0.0 mm
00:32 10.9 °C 9.3 °C 1023.2 hPa NNW 3.2 km/h 8.0 km/h 90 % 0.0 mm
00:37 10.9 °C 9.5 °C 1023.2 hPa WNW 6.4 km/h 8.0 km/h 91 % 0.0 mm
00:42 10.9 °C 9.5 °C 1023.2 hPa WNW 6.4 km/h 8.0 km/h 91 % 0.0 mm
00:47 10.9 °C 9.7 °C 1023.2 hPa West 3.2 km/h 8.0 km/h 92 % 0.0 mm
00:52 10.8 °C 9.6 °C 1023.2 hPa WNW 4.8 km/h 11.3 km/h 92 % 0.0 mm
00:57 10.8 °C 9.6 °C 1023.2 hPa NW 1.6 km/h 11.3 km/h 92 % 0.0 mm
01:02 10.7 °C 9.6 °C 1023.2 hPa WSW 8.0 km/h 11.3 km/h 93 % 0.0 mm
01:07 10.7 °C 9.5 °C 1023.2 hPa WNW 1.6 km/h 14.5 km/h 92 % 0.0 mm
01:12 10.6 °C 9.5 °C 1023.2 hPa WNW 8.0 km/h 14.5 km/h 93 % 0.0 mm
01:17 10.5 °C 9.4 °C 1023.2 hPa WNW 3.2 km/h 14.5 km/h 93 % 0.3 mm
01:22 10.4 °C 9.3 °C 1023.2 hPa WNW 1.6 km/h 14.5 km/h 93 % 0.3 mm
01:27 10.4 °C 9.3 °C 1023.2 hPa NW 1.6 km/h 9.7 km/h 93 % 0.3 mm
01:32 10.3 °C 9.2 °C 1023.2 hPa Calm   9.7 km/h 93 % 0.3 mm
01:37 10.3 °C 9.2 °C 1023.2 hPa WNW 4.8 km/h 8.0 km/h 93 % 0.3 mm
01:42 10.3 °C 9.2 °C 1023.2 hPa WNW 1.6 km/h 8.0 km/h 93 % 0.3 mm
01:47 10.3 °C 9.2 °C 1023.2 hPa West 3.2 km/h 8.0 km/h 93 % 0.3 mm
01:52 10.3 °C 9.2 °C 1022.9 hPa West 4.8 km/h 8.0 km/h 93 % 0.3 mm
01:57 10.2 °C 9.1 °C 1023.2 hPa West 1.6 km/h 6.4 km/h 93 % 0.3 mm
02:02 10.2 °C 9.1 °C 1023.2 hPa Calm   6.4 km/h 93 % 0.3 mm
02:07 10.2 °C 9.1 °C 1023.2 hPa Calm   6.4 km/h 93 % 0.3 mm
02:12 10.2 °C 9.1 °C 1022.9 hPa Calm   6.4 km/h 93 % 0.3 mm
02:17 10.2 °C 9.3 °C 1022.9 hPa West 1.6 km/h 4.8 km/h 94 % 0.0 mm
02:22 10.2 °C 9.3 °C 1022.9 hPa Calm   4.8 km/h 94 % 0.0 mm
02:32 10.1 °C 9.2 °C 1023.2 hPa WNW 1.6 km/h 8.0 km/h 94 % 0.0 mm
02:37 10.1 °C 9.2 °C 1023.2 hPa WNW 4.8 km/h 8.0 km/h 94 % 0.0 mm
02:42 10.1 °C 9.2 °C 1023.2 hPa WNW 1.6 km/h 8.0 km/h 94 % 0.0 mm
02:47 10.0 °C 9.1 °C 1023.2 hPa WNW 3.2 km/h 4.8 km/h 94 % 0.0 mm
02:52 10.0 °C 9.1 °C 1023.2 hPa West 1.6 km/h 4.8 km/h 94 % 0.0 mm
02:57 9.9 °C 9.0 °C 1023.2 hPa Calm   4.8 km/h 94 % 0.0 mm
03:02 9.9 °C 8.8 °C 1023.2 hPa Calm   4.8 km/h 93 % 0.0 mm
03:12 9.9 °C 8.8 °C 1023.2 hPa WNW 1.6 km/h 4.8 km/h 93 % 0.0 mm
03:17 9.9 °C 8.8 °C 1023.2 hPa West 1.6 km/h 4.8 km/h 93 % 0.0 mm
03:22 9.9 °C 8.8 °C 1022.9 hPa WSW 3.2 km/h 4.8 km/h 93 % 0.0 mm
03:27 9.9 °C 8.8 °C 1023.2 hPa WNW 4.8 km/h 4.8 km/h 93 % 0.0 mm
03:32 9.9 °C 8.8 °C 1022.9 hPa West 3.2 km/h 4.8 km/h 93 % 0.0 mm
03:37 10.0 °C 8.9 °C 1022.9 hPa West 11.3 km/h 11.3 km/h 93 % 0.0 mm
03:42 10.0 °C 8.9 °C 1022.9 hPa WNW 4.8 km/h 8.0 km/h 93 % 0.0 mm
03:47 10.0 °C 8.9 °C 1022.9 hPa West 1.6 km/h 11.3 km/h 93 % 0.0 mm
03:52 9.9 °C 8.8 °C 1022.9 hPa WNW 1.6 km/h 11.3 km/h 93 % 0.0 mm
03:57 9.9 °C 8.8 °C 1022.9 hPa WNW 6.4 km/h 11.3 km/h 93 % 0.0 mm
04:02 9.9 °C 8.8 °C 1022.9 hPa West 3.2 km/h 11.3 km/h 93 % 0.0 mm
04:12 9.9 °C 8.8 °C 1022.6 hPa WNW 4.8 km/h 11.3 km/h 93 % 0.0 mm
04:17 9.9 °C 8.8 °C 1022.6 hPa WNW 3.2 km/h 11.3 km/h 93 % 0.0 mm
04:27 9.9 °C 8.8 °C 1022.6 hPa NW 1.6 km/h 8.0 km/h 93 % 0.0 mm
04:37 9.9 °C 8.8 °C 1022.6 hPa WNW 1.6 km/h 6.4 km/h 93 % 0.0 mm
04:42 9.8 °C 8.7 °C 1022.6 hPa WNW 4.8 km/h 6.4 km/h 93 % 0.0 mm
04:47 9.8 °C 8.7 °C 1022.6 hPa Calm   6.4 km/h 93 % 0.0 mm
04:52 9.8 °C 8.7 °C 1022.6 hPa WNW 3.2 km/h 6.4 km/h 93 % 0.0 mm
05:02 9.8 °C 8.7 °C 1022.6 hPa West 3.2 km/h 4.8 km/h 93 % 0.0 mm
05:12 9.8 °C 8.6 °C 1022.6 hPa Calm   6.4 km/h 92 % 0.0 mm
05:17 9.8 °C 8.6 °C 1022.6 hPa West 3.2 km/h 8.0 km/h 92 % 0.0 mm
05:22 9.8 °C 8.6 °C 1022.6 hPa Calm   8.0 km/h 92 % 0.0 mm
05:32 9.8 °C 8.6 °C 1022.6 hPa West 1.6 km/h 6.4 km/h 92 % 0.0 mm
05:42 9.7 °C 8.5 °C 1022.2 hPa Calm   3.2 km/h 92 % 0.0 mm
05:47 9.7 °C 8.5 °C 1022.2 hPa West 1.6 km/h 4.8 km/h 92 % 0.0 mm
05:52 9.6 °C 8.4 °C 1022.2 hPa West 3.2 km/h 4.8 km/h 92 % 0.0 mm
06:02 9.6 °C 8.5 °C 1022.2 hPa NW 4.8 km/h 4.8 km/h 93 % 0.0 mm
06:12 9.4 °C 8.2 °C 1022.2 hPa Calm   6.4 km/h 92 % 0.0 mm
06:17 9.3 °C 8.2 °C 1022.2 hPa WNW 1.6 km/h 6.4 km/h 93 % 0.0 mm
06:22 9.3 °C 8.1 °C 1022.2 hPa WNW 3.2 km/h 6.4 km/h 92 % 0.0 mm
06:32 9.1 °C 7.9 °C 1022.2 hPa WSW 1.6 km/h 9.7 km/h 92 % 0.0 mm
06:37 9.1 °C 7.9 °C 1022.2 hPa WNW 3.2 km/h 8.0 km/h 92 % 0.0 mm
06:42 8.9 °C 7.7 °C 1022.2 hPa WSW 1.6 km/h 8.0 km/h 92 % 0.0 mm
06:47 8.8 °C 7.6 °C 1022.2 hPa West 3.2 km/h 8.0 km/h 92 % 0.0 mm
06:57 8.7 °C 7.5 °C 1022.2 hPa WNW 1.6 km/h 8.0 km/h 92 % 0.0 mm
07:02 8.6 °C 7.4 °C 1022.2 hPa West 1.6 km/h 8.0 km/h 92 % 0.0 mm
07:12 8.4 °C 7.3 °C 1022.2 hPa Calm   6.4 km/h 93 % 0.0 mm
07:22 8.2 °C 7.0 °C 1022.2 hPa Calm   4.8 km/h 92 % 0.0 mm
07:32 7.9 °C 6.8 °C 1022.2 hPa Calm   3.2 km/h 93 % 0.0 mm
07:42 7.8 °C 6.9 °C 1022.2 hPa Calm   1.6 km/h 94 % 0.0 mm
07:47 7.7 °C 6.8 °C 1022.2 hPa Calm   1.6 km/h 94 % 0.0 mm
07:52 7.6 °C 6.5 °C 1022.2 hPa Calm   1.6 km/h 93 % 0.0 mm
08:02 7.2 °C 6.3 °C 1022.2 hPa Calm   1.6 km/h 94 % 0.0 mm
08:12 6.9 °C 6.0 °C 1022.6 hPa Calm   3.2 km/h 94 % 0.0 mm
08:17 6.9 °C 6.2 °C 1022.6 hPa Calm   3.2 km/h 95 % 0.0 mm
08:22 7.0 °C 6.3 °C 1022.6 hPa Calm   3.2 km/h 95 % 0.0 mm
08:32 7.0 °C 6.3 °C 1022.6 hPa Calm   1.6 km/h 95 % 0.0 mm
08:42 7.1 °C 6.4 °C 1022.9 hPa Calm     95 % 0.0 mm
08:52 7.0 °C 6.3 °C 1022.9 hPa Calm     95 % 0.0 mm
09:02 7.1 °C 6.5 °C 1022.9 hPa Calm     96 % 0.0 mm
09:12 7.3 °C 6.7 °C 1022.9 hPa Calm     96 % 0.0 mm
09:17 7.3 °C 6.7 °C 1022.9 hPa Calm   1.6 km/h 96 % 0.0 mm
09:22 7.5 °C 6.8 °C 1022.9 hPa WNW 4.8 km/h 4.8 km/h 95 % 0.0 mm
09:32 7.7 °C 6.9 °C 1023.2 hPa West 3.2 km/h 3.2 km/h 95 % 0.0 mm
09:42 7.9 °C 7.0 °C 1023.2 hPa West 3.2 km/h 6.4 km/h 94 % 0.0 mm
09:47 8.1 °C 7.2 °C 1022.9 hPa West 3.2 km/h 8.0 km/h 94 % 0.0 mm
09:52 8.2 °C 7.3 °C 1022.9 hPa West 3.2 km/h 8.0 km/h 94 % 0.0 mm
10:02 8.6 °C 7.5 °C 1022.9 hPa WNW 6.4 km/h 8.0 km/h 93 % 0.0 mm
10:12 8.9 °C 7.7 °C 1022.9 hPa West 1.6 km/h 11.3 km/h 92 % 0.0 mm
10:17 8.9 °C 7.7 °C 1022.9 hPa WNW 4.8 km/h 11.3 km/h 92 % 0.0 mm
10:22 9.1 °C 7.7 °C 1022.9 hPa Calm   11.3 km/h 91 % 0.0 mm
10:32 9.3 °C 7.9 °C 1022.9 hPa Calm   12.9 km/h 91 % 0.0 mm
10:42 9.4 °C 7.8 °C 1022.9 hPa WNW 6.4 km/h 12.9 km/h 90 % 0.0 mm
10:47 9.6 °C 8.0 °C 1022.9 hPa NW 4.8 km/h 9.7 km/h 90 % 0.0 mm
10:52 9.6 °C 7.9 °C 1022.9 hPa NW 3.2 km/h 9.7 km/h 89 % 0.0 mm
10:57 9.7 °C 8.0 °C 1022.9 hPa Calm   9.7 km/h 89 % 0.0 mm
11:02 9.8 °C 8.1 °C 1022.9 hPa West 1.6 km/h 9.7 km/h 89 % 0.0 mm
11:12 10.1 °C 8.0 °C 1022.9 hPa WNW 4.8 km/h 8.0 km/h 87 % 0.0 mm
11:17 10.3 °C 8.2 °C 1022.9 hPa NW 1.6 km/h 8.0 km/h 87 % 0.0 mm
11:22 10.3 °C 8.1 °C 1022.9 hPa WNW 4.8 km/h 8.0 km/h 86 % 0.0 mm
11:32 10.5 °C 8.1 °C 1022.9 hPa NW 4.8 km/h 8.0 km/h 85 % 0.0 mm
11:37 10.7 °C 8.3 °C 1022.9 hPa Calm   8.0 km/h 85 % 0.0 mm
11:42 10.9 °C 8.6 °C 1022.9 hPa WNW 3.2 km/h 8.0 km/h 86 % 0.0 mm
11:52 11.1 °C 8.3 °C 1022.9 hPa Calm   6.4 km/h 83 % 0.0 mm
11:57 11.3 °C 8.3 °C 1022.9 hPa Calm   8.0 km/h 82 % 0.0 mm
12:02 11.3 °C 8.0 °C 1022.9 hPa West 3.2 km/h 8.0 km/h 80 % 0.0 mm
12:07 11.3 °C 7.8 °C 1022.9 hPa NW 3.2 km/h 11.3 km/h 79 % 0.0 mm
12:12 11.3 °C 7.6 °C 1022.9 hPa NW 3.2 km/h 11.3 km/h 78 % 0.0 mm
12:17 11.3 °C 7.4 °C 1022.9 hPa West 4.8 km/h 11.3 km/h 77 % 0.0 mm
12:22 11.4 °C 7.3 °C 1022.6 hPa Calm   12.9 km/h 76 % 0.0 mm
12:27 11.4 °C 7.1 °C 1022.6 hPa WNW 6.4 km/h 12.9 km/h 75 % 0.0 mm
12:32 11.4 °C 7.1 °C 1022.6 hPa NW 6.4 km/h 12.9 km/h 75 % 0.0 mm
12:37 11.4 °C 7.1 °C 1022.6 hPa WNW 6.4 km/h 12.9 km/h 75 % 0.0 mm
12:42 11.4 °C 7.1 °C 1022.6 hPa NW 3.2 km/h 12.9 km/h 75 % 0.0 mm
12:47 11.6 °C 6.9 °C 1022.6 hPa WNW 1.6 km/h 14.5 km/h 73 % 0.0 mm
12:52 11.7 °C 7.2 °C 1022.6 hPa NW 6.4 km/h 14.5 km/h 74 % 0.0 mm
12:57 11.6 °C 7.1 °C 1022.6 hPa WNW 9.7 km/h 14.5 km/h 74 % 0.0 mm
13:02 11.6 °C 7.3 °C 1022.6 hPa Calm   14.5 km/h 75 % 0.0 mm
13:07 11.7 °C 7.4 °C 1022.2 hPa NW 3.2 km/h 12.9 km/h 75 % 0.0 mm
13:12 11.8 °C 7.5 °C 1022.2 hPa WNW 4.8 km/h 12.9 km/h 75 % 0.0 mm
13:17 11.8 °C 6.9 °C 1022.2 hPa WNW 3.2 km/h 11.3 km/h 72 % 0.0 mm
13:22 11.9 °C 6.8 °C 1022.2 hPa North 4.8 km/h 11.3 km/h 71 % 0.0 mm
13:27 12.1 °C 7.2 °C 1021.9 hPa West 6.4 km/h 11.3 km/h 72 % 0.0 mm
13:32 12.1 °C 6.8 °C 1021.9 hPa WNW 4.8 km/h 11.3 km/h 70 % 0.0 mm
13:37 12.1 °C 5.7 °C 1021.9 hPa NW 6.4 km/h 14.5 km/h 65 % 0.0 mm
13:42 11.9 °C 4.4 °C 1021.6 hPa West 11.3 km/h 14.5 km/h 60 % 0.0 mm
13:47 12.2 °C 4.9 °C 1021.6 hPa WNW 6.4 km/h 19.3 km/h 61 % 0.0 mm
13:52 12.3 °C 5.2 °C 1021.6 hPa West 4.8 km/h 19.3 km/h 62 % 0.0 mm
13:57 12.3 °C 4.8 °C 1021.6 hPa West 8.0 km/h 19.3 km/h 60 % 0.0 mm
14:02 12.2 °C 5.6 °C 1021.6 hPa WNW 8.0 km/h 19.3 km/h 64 % 0.0 mm
14:07 12.0 °C 6.1 °C 1021.6 hPa WSW 9.7 km/h 17.7 km/h 67 % 0.0 mm
14:12 11.9 °C 6.0 °C 1021.6 hPa WNW 9.7 km/h 17.7 km/h 67 % 0.0 mm
14:17 11.8 °C 6.1 °C 1021.6 hPa West 8.0 km/h 17.7 km/h 68 % 0.0 mm
14:22 11.7 °C 6.0 °C 1021.6 hPa WNW 14.5 km/h 17.7 km/h 68 % 0.0 mm
14:27 11.6 °C 5.7 °C 1021.6 hPa NNW 3.2 km/h 16.1 km/h 67 % 0.0 mm
14:32 11.7 °C 6.2 °C 1021.6 hPa WNW 8.0 km/h 16.1 km/h 69 % 0.0 mm
14:37 11.7 °C 5.8 °C 1021.6 hPa West 6.4 km/h 14.5 km/h 67 % 0.0 mm
14:42 11.7 °C 6.0 °C 1021.2 hPa WNW 3.2 km/h 14.5 km/h 68 % 0.0 mm
14:47 11.7 °C 5.8 °C 1021.2 hPa West 3.2 km/h 14.5 km/h 67 % 0.0 mm
14:52 11.8 °C 5.9 °C 1021.2 hPa SW 4.8 km/h 14.5 km/h 67 % 0.0 mm
14:57 12.1 °C 5.7 °C 1021.2 hPa SW 3.2 km/h 14.5 km/h 65 % 0.0 mm
15:02 12.3 °C 5.9 °C 1020.9 hPa SSE 4.8 km/h 14.5 km/h 65 % 0.0 mm
15:12 12.7 °C 5.6 °C 1020.9 hPa NNW 4.8 km/h 11.3 km/h 62 % 0.0 mm
15:17 12.7 °C 6.1 °C 1020.5 hPa West 3.2 km/h 11.3 km/h 64 % 0.0 mm
15:22 12.7 °C 5.6 °C 1020.5 hPa WNW 4.8 km/h 11.3 km/h 62 % 0.0 mm
15:27 12.8 °C 5.7 °C 1020.5 hPa WSW 4.8 km/h 14.5 km/h 62 % 0.0 mm
15:32 13.0 °C 5.2 °C 1020.5 hPa SW 1.6 km/h 14.5 km/h 59 % 0.0 mm
15:37 13.2 °C 5.4 °C 1020.5 hPa West 1.6 km/h 14.5 km/h 59 % 0.0 mm
15:42 13.2 °C 5.8 °C 1020.5 hPa West 4.8 km/h 14.5 km/h 61 % 0.0 mm
15:47 12.9 °C 5.6 °C 1020.2 hPa WNW 8.0 km/h 14.5 km/h 61 % 0.0 mm
15:57 12.8 °C 5.9 °C 1020.2 hPa WNW 8.0 km/h 14.5 km/h 63 % 0.0 mm
16:02 12.5 °C 5.4 °C 1020.2 hPa WNW 6.4 km/h 14.5 km/h 62 % 0.0 mm
16:07 12.6 °C 6.0 °C 1020.2 hPa WNW 8.0 km/h 12.9 km/h 64 % 0.0 mm
16:12 12.7 °C 6.1 °C 1020.2 hPa WNW 4.8 km/h 12.9 km/h 64 % 0.0 mm
16:17 12.8 °C 6.2 °C 1020.2 hPa WNW 8.0 km/h 11.3 km/h 64 % 0.0 mm
16:22 12.8 °C 5.9 °C 1020.2 hPa WSW 4.8 km/h 11.3 km/h 63 % 0.0 mm
16:32 12.7 °C 6.5 °C 1020.2 hPa West 3.2 km/h 11.3 km/h 66 % 0.0 mm
16:37 12.7 °C 6.5 °C 1020.2 hPa West 3.2 km/h 9.7 km/h 66 % 0.0 mm
16:42 12.7 °C 6.1 °C 1020.2 hPa West 4.8 km/h 9.7 km/h 64 % 0.0 mm
16:47 12.6 °C 6.0 °C 1020.2 hPa West 6.4 km/h 9.7 km/h 64 % 0.0 mm
16:52 12.5 °C 6.1 °C 1020.2 hPa West 6.4 km/h 9.7 km/h 65 % 0.0 mm
16:57 12.4 °C 6.4 °C 1020.2 hPa WSW 3.2 km/h 12.9 km/h 67 % 0.0 mm
17:02 12.3 °C 6.3 °C 1020.2 hPa WSW 8.0 km/h 12.9 km/h 67 % 0.0 mm
17:07 12.3 °C 6.6 °C 1020.2 hPa WSW 8.0 km/h 14.5 km/h 68 % 0.0 mm
17:12 12.2 °C 6.5 °C 1020.2 hPa WSW 8.0 km/h 14.5 km/h 68 % 0.0 mm
17:17 12.2 °C 6.5 °C 1020.2 hPa WSW 6.4 km/h 14.5 km/h 68 % 0.0 mm
17:22 12.1 °C 6.4 °C 1020.2 hPa SSW 3.2 km/h 14.5 km/h 68 % 0.0 mm
17:27 12.1 °C 6.6 °C 1020.2 hPa West 8.0 km/h 12.9 km/h 69 % 0.0 mm
17:32 12.0 °C 6.7 °C 1020.2 hPa West 3.2 km/h 12.9 km/h 70 % 0.0 mm
17:37 12.0 °C 6.7 °C 1020.2 hPa West 3.2 km/h 12.9 km/h 70 % 0.0 mm
17:42 11.9 °C 6.6 °C 1020.2 hPa West 3.2 km/h 12.9 km/h 70 % 0.0 mm
17:47 11.9 °C 6.6 °C 1020.2 hPa West 6.4 km/h 11.3 km/h 70 % 0.0 mm
17:57 11.8 °C 6.7 °C 1020.2 hPa WNW 4.8 km/h 12.9 km/h 71 % 0.0 mm
18:02 11.8 °C 6.7 °C 1019.9 hPa West 4.8 km/h 12.9 km/h 71 % 0.0 mm
18:07 11.8 °C 6.9 °C 1019.9 hPa WNW 1.6 km/h 12.9 km/h 72 % 0.0 mm
18:12 11.7 °C 6.8 °C 1020.2 hPa WNW 4.8 km/h 12.9 km/h 72 % 0.0 mm
18:17 11.7 °C 7.0 °C 1020.2 hPa WNW 1.6 km/h 9.7 km/h 73 % 0.0 mm
18:22 11.6 °C 6.9 °C 1019.9 hPa West 1.6 km/h 9.7 km/h 73 % 0.0 mm
18:27 11.6 °C 6.9 °C 1019.9 hPa Calm   9.7 km/h 73 % 0.0 mm
18:32 11.5 °C 7.0 °C 1019.9 hPa Calm   6.4 km/h 74 % 0.0 mm
18:37 11.4 °C 7.1 °C 1019.9 hPa Calm   6.4 km/h 75 % 0.0 mm
18:42 11.3 °C 6.8 °C 1019.9 hPa West 1.6 km/h 4.8 km/h 74 % 0.0 mm
18:47 11.2 °C 6.9 °C 1019.9 hPa West 1.6 km/h 3.2 km/h 75 % 0.0 mm
18:52 11.1 °C 6.8 °C 1019.9 hPa Calm   3.2 km/h 75 % 0.0 mm
18:57 11.0 °C 6.9 °C 1019.9 hPa Calm   3.2 km/h 76 % 0.0 mm
19:02 10.9 °C 7.0 °C 1019.9 hPa Calm   3.2 km/h 77 % 0.0 mm
19:07 10.8 °C 6.9 °C 1019.9 hPa Calm   3.2 km/h 77 % 0.0 mm
19:12 10.7 °C 6.8 °C 1019.9 hPa Calm   3.2 km/h 77 % 0.0 mm
19:17 10.6 °C 6.9 °C 1019.9 hPa Calm   1.6 km/h 78 % 0.0 mm
19:22 10.5 °C 7.0 °C 1019.9 hPa Calm   1.6 km/h 79 % 0.0 mm
19:27 10.4 °C 6.9 °C 1019.9 hPa Calm   3.2 km/h 79 % 0.0 mm
19:32 10.3 °C 7.0 °C 1019.9 hPa Calm   3.2 km/h 80 % 0.0 mm
19:37 10.3 °C 7.0 °C 1019.9 hPa WSW 1.6 km/h 4.8 km/h 80 % 0.0 mm
19:42 10.2 °C 6.9 °C 1019.9 hPa Calm   4.8 km/h 80 % 0.0 mm
19:52 10.2 °C 6.9 °C 1019.9 hPa Calm   4.8 km/h 80 % 0.0 mm
19:57 10.1 °C 7.0 °C 1019.9 hPa West 1.6 km/h 4.8 km/h 81 % 0.0 mm
20:07 10.0 °C 6.9 °C 1019.9 hPa WNW 1.6 km/h 3.2 km/h 81 % 0.0 mm
20:12 9.9 °C 6.8 °C 1019.9 hPa WNW 1.6 km/h 3.2 km/h 81 % 0.0 mm
20:17 9.8 °C 6.7 °C 1019.9 hPa Calm   4.8 km/h 81 % 0.0 mm
20:22 9.7 °C 6.8 °C 1019.9 hPa Calm   4.8 km/h 82 % 0.0 mm
20:27 9.6 °C 6.7 °C 1019.9 hPa Calm   1.6 km/h 82 % 0.0 mm
20:32 9.6 °C 6.9 °C 1019.9 hPa Calm   1.6 km/h 83 % 0.0 mm
20:37 9.4 °C 6.7 °C 1020.2 hPa Calm     83 % 0.0 mm
20:42 9.3 °C 6.7 °C 1020.2 hPa Calm     84 % 0.0 mm
20:52 9.1 °C 6.5 °C 1020.2 hPa Calm     84 % 0.0 mm
20:57 8.9 °C 6.3 °C 1020.2 hPa Calm     84 % 0.0 mm
21:02 8.9 °C 6.5 °C 1020.2 hPa Calm     85 % 0.0 mm
21:07 8.9 °C 6.5 °C 1019.9 hPa Calm     85 % 0.0 mm
21:12 8.8 °C 6.4 °C 1019.9 hPa Calm     85 % 0.0 mm
21:22 8.8 °C 6.4 °C 1019.9 hPa Calm     85 % 0.0 mm
21:27 8.8 °C 6.4 °C 1019.9 hPa Calm     85 % 0.0 mm
21:32 8.9 °C 6.5 °C 1019.9 hPa Calm     85 % 0.0 mm
21:37 8.9 °C 6.5 °C 1019.9 hPa Calm     85 % 0.0 mm
21:42 8.9 °C 6.5 °C 1019.9 hPa Calm     85 % 0.0 mm
21:47 8.9 °C 6.5 °C 1019.9 hPa Calm     85 % 0.0 mm
21:52 8.8 °C 6.6 °C 1019.9 hPa Calm     86 % 0.0 mm
22:02 8.7 °C 6.5 °C 1019.9 hPa Calm     86 % 0.0 mm
22:07 8.7 °C 6.5 °C 1019.9 hPa Calm     86 % 0.0 mm
22:12 8.7 °C 6.5 °C 1019.9 hPa Calm     86 % 0.0 mm
22:17 8.8 °C 6.6 °C 1019.9 hPa Calm   1.6 km/h 86 % 0.0 mm
22:22 8.8 °C 6.6 °C 1019.9 hPa Calm   1.6 km/h 86 % 0.0 mm
22:27 8.8 °C 6.6 °C 1019.9 hPa Calm   1.6 km/h 86 % 0.0 mm
22:32 8.9 °C 6.5 °C 1019.9 hPa Calm   1.6 km/h 85 % 0.0 mm
22:37 8.9 °C 6.3 °C 1019.9 hPa Calm   1.6 km/h 84 % 0.0 mm
22:42 9.0 °C 6.4 °C 1019.9 hPa Calm   1.6 km/h 84 % 0.0 mm
22:47 9.1 °C 6.5 °C 1019.9 hPa Calm   3.2 km/h 84 % 0.0 mm
22:52 9.1 °C 6.5 °C 1019.9 hPa Calm   3.2 km/h 84 % 0.0 mm
22:57 9.0 °C 6.4 °C 1019.9 hPa Calm   3.2 km/h 84 % 0.0 mm
23:02 8.9 °C 6.5 °C 1019.9 hPa Calm   3.2 km/h 85 % 0.0 mm
23:07 8.8 °C 6.4 °C 1019.9 hPa Calm   1.6 km/h 85 % 0.0 mm
23:17 8.7 °C 6.5 °C 1019.9 hPa Calm     86 % 0.0 mm
23:22 8.7 °C 6.3 °C 1019.9 hPa Calm     85 % 0.0 mm
23:32 8.6 °C 6.2 °C 1019.9 hPa Calm   1.6 km/h 85 % 0.0 mm
23:37 8.6 °C 6.2 °C 1019.9 hPa Calm     85 % 0.0 mm
23:42 8.3 °C 6.1 °C 1019.9 hPa Calm     86 % 0.0 mm
23:52 8.1 °C 6.1 °C 1019.9 hPa Calm     87 % 0.0 mm
23:57 8.1 °C 6.1 °C 1019.9 hPa Calm   1.6 km/h 87 % 0.0 mm
Meteo18
Compliments of Weather Underground - 4 mb

Script developed by  Jim McMurry - jmcmurry@mwt.net Adapted for the template by  Wim van der Kuil - Leuven-Template.eu

You find our weather info also at:

European Weather Network

Weather Underground

Equipment we use:

Weather-station
Davis Vue

Weather-program
Meteohub

Weather-server
Raspberry PI 2 B+

Provider
1 and 1

Davis Vue

Meteohub

Raspberry PI 2 B+

1 and 1